Airfield :
LOGIN :

Register | Disclaimer

   EN    FR    IT 

 










Legend :    VFR   Marginal VFR   IFR   Intensive IFR   Very Intensive IFR
Visi :
Ceiling :
>= 8 km
>= 3000ft
5 to 8 km
1000 to 3000 ft
1500m to 5 km
500 to 1000 ft
800 to 1500m
200 to 500 ft
< 800m
< 200 ft
Symbols :   Thunderstorms  Fog  Heavy snow  Heavy precipitations  Wind > 20 kt
SIGMETs :     Misc.  Thunderstorms  Icing  Turbulence  Mountain Waves  Volcanic Ashes







- Airport Elevation : 6 ft
- IATA code : CFU


LGKR - Corfu Kerkyra

CURRENT METAR :
  • 171620Z 13011KT 9999 FEW020 BKN030 OVC080 14/07 Q1011 NOSIG

EXPIRED METARs :
  • 171550Z 12011KT 9999 FEW020 BKN030 OVC080 14/07 Q1011 NOSIG
  • 171520Z 13013KT 9999 FEW020 BKN030 OVC080 14/07 Q1011 NOSIG
  • 171450Z 13011KT 9999 FEW020 BKN030 OVC080 14/07 Q1011 NOSIG
  • 171420Z 13012KT 9999 FEW020 BKN030 OVC080 14/07 Q1012 NOSIG
  • 171350Z 14010KT 9999 FEW020 BKN030 OVC080 14/07 Q1012 NOSIG
  • 171320Z 14009KT 9999 FEW020 BKN030 BKN080 13/08 Q1013 NOSIG

TAF TAF LGKR
Valid from the 17 at 12:00 until the 18 at 12:00 UTC


171100Z 1712/1812 VRB05KT 9999 SCT030
BECMG 1712/1714 10016KT
PROB40
TEMPO 1802/1812 5000 RA SCT015 FEW018TCU BKN030
PROB30
TEMPO 1804/1812 3000 TSRA SCT015 FEW020CB BKN030
BECMG 1802/1804 12012KT
No reported NOTAMs for that airfield.
1 SIGMET reported for the Athinai FIR (LGGG) :
 
Embedded thunderstorms
LGGG SIGMET 1 VALID 171530/171730 LGAT
LGGG ATHINAI FIR/UIR EMBD TS OBS WI N4000 E01900-N3630 E01900-N3530 E02100-N3600 E02100-N3940 E02000-N4000 E01900 MOV E INTSF=



MET'MAP, your aeronautical weather chart ! - Copyright ORBIFLY December 2007 - Disclaimer

ORBIFLY MET'MAP TEAM :

Programming & Development : Alexandra Zaïnal
Concept & Development : Baudouin d'Aumeries
Co-Development & Prog : Marc-Olivier Méhu
Technical & hardware support : Manuel Goepfert

Contact : metmap@orbifly.com




SOURCES & CREDITS :

   NOAA